Time;durP1;ratioP1;P1;durP2;ratioP2;P2;SDS_P1;SDS_P2;PMS_P1;PMS_P2;Temp;Humidity;BMP_temperature;BMP_pressure;BME280_temperature;BME280_humidity;BME280_pressure;Samples;Min_cycle;Max_cycle;Signal;HPM_P1;HPM_P2
2022/04/04 00:01:50;;;;;;;3.33;0.80;;;1.80;71.00;;;;;;5057713;28;20097;-70
2022/04/04 00:04:20;;;;;;;3.95;1.08;;;1.80;71.00;;;;;;5060347;28;20045;-72
2022/04/04 00:06:47;;;;;;;3.45;0.90;;;1.80;71.00;;;;;;5061408;28;20494;-71
2022/04/04 00:09:20;;;;;;;2.35;0.88;;;1.80;71.10;;;;;;5061351;28;20486;-71
2022/04/04 00:11:47;;;;;;;1.95;0.70;;;1.80;71.20;;;;;;5062061;28;20044;-72
2022/04/04 00:14:14;;;;;;;2.08;0.95;;;1.80;71.30;;;;;;5062539;28;20029;-73
2022/04/04 00:16:41;;;;;;;2.38;1.02;;;1.80;71.30;;;;;;5062495;28;20037;-71
2022/04/04 00:19:08;;;;;;;3.90;1.02;;;1.80;71.30;;;;;;5063181;28;20044;-71
2022/04/04 00:21:37;;;;;;;5.35;0.98;;;1.80;71.30;;;;;;5069728;28;20049;-72
2022/04/04 00:24:05;;;;;;;1.55;1.00;;;1.80;71.30;;;;;;5069380;28;20044;-71
2022/04/04 00:26:32;;;;;;;1.65;0.80;;;1.80;71.50;;;;;;5069411;28;20123;-71
2022/04/04 00:28:59;;;;;;;1.40;0.63;;;1.80;71.50;;;;;;5069384;28;20040;-72
2022/04/04 00:31:26;;;;;;;1.70;0.60;;;1.80;71.50;;;;;;5066800;28;20047;-71
2022/04/04 00:33:53;;;;;;;1.83;0.60;;;1.80;71.60;;;;;;5068447;28;20055;-71
2022/04/04 00:36:20;;;;;;;1.10;0.60;;;1.80;71.60;;;;;;5068344;28;20394;-70
2022/04/04 00:38:49;;;;;;;1.15;0.60;;;1.80;71.80;;;;;;5067518;28;20048;-71
2022/04/04 00:41:17;;;;;;;1.55;0.70;;;1.80;71.80;;;;;;5068188;28;20075;-71
2022/04/04 00:43:45;;;;;;;1.67;0.60;;;1.90;71.80;;;;;;5063439;28;20029;-70
2022/04/04 00:46:12;;;;;;;2.67;1.08;;;1.90;71.80;;;;;;5058332;28;20497;-70
2022/04/04 00:48:39;;;;;;;1.73;0.85;;;1.90;71.80;;;;;;5069168;28;20045;-70
2022/04/04 00:51:06;;;;;;;2.70;1.05;;;1.90;71.90;;;;;;5064381;28;20051;-71
2022/04/04 00:53:33;;;;;;;5.25;1.52;;;1.90;71.90;;;;;;5064814;28;20131;-72
2022/04/04 00:56:01;;;;;;;3.13;1.30;;;1.90;71.90;;;;;;5057384;28;20047;-69
2022/04/04 00:58:30;;;;;;;2.88;1.10;;;1.80;72.00;;;;;;5062212;28;20048;-70
2022/04/04 01:00:59;;;;;;;2.70;1.52;;;1.80;72.00;;;;;;5054919;28;20056;-71
2022/04/04 01:03:26;;;;;;;2.22;0.85;;;1.90;71.90;;;;;;5060214;28;20048;-71
2022/04/04 01:05:54;;;;;;;2.25;1.20;;;1.90;71.80;;;;;;5062268;28;20513;-71
2022/04/04 01:08:21;;;;;;;6.82;1.60;;;1.90;71.80;;;;;;5056162;28;20072;-70
2022/04/04 01:10:48;;;;;;;3.88;1.63;;;1.90;71.70;;;;;;5066630;28;20155;-71
2022/04/04 01:13:17;;;;;;;4.38;1.88;;;1.90;71.60;;;;;;5068713;28;20036;-71
2022/04/04 01:15:44;;;;;;;6.20;1.52;;;1.90;71.40;;;;;;5063525;28;20800;-71
2022/04/04 01:18:11;;;;;;;2.15;1.23;;;1.90;71.60;;;;;;5060307;28;20076;-71
2022/04/04 01:20:39;;;;;;;3.08;1.40;;;1.90;71.70;;;;;;5058990;28;20052;-72
2022/04/04 01:23:06;;;;;;;3.95;1.27;;;1.90;71.80;;;;;;5060484;28;20041;-71
2022/04/04 01:25:36;;;;;;;1.98;1.05;;;1.90;71.80;;;;;;5065640;28;20037;-72
2022/04/04 01:28:05;;;;;;;8.93;1.42;;;1.80;71.80;;;;;;5063110;28;20482;-71
2022/04/04 01:30:33;;;;;;;4.03;1.13;;;1.80;71.90;;;;;;5063900;28;20054;-71
2022/04/04 01:33:00;;;;;;;3.20;1.05;;;1.70;72.00;;;;;;5060777;28;20040;-70
2022/04/04 01:35:30;;;;;;;2.80;1.30;;;1.70;72.10;;;;;;5059023;28;20140;-71
2022/04/04 01:37:57;;;;;;;2.50;1.00;;;1.70;72.10;;;;;;5058154;28;20501;-71
2022/04/04 01:40:24;;;;;;;3.58;1.25;;;1.70;72.20;;;;;;5057609;28;20053;-72
2022/04/04 01:42:55;;;;;;;1.85;0.90;;;1.70;72.20;;;;;;5060741;28;20069;-71
2022/04/04 01:46:23;;;;;;;3.72;1.02;;;1.70;72.20;;;;;;5059600;28;20049;-71
2022/04/04 01:48:11;;;;;;;2.60;1.27;;;1.60;72.40;;;;;;5059171;28;20041;-73
2022/04/04 01:50:38;;;;;;;2.97;1.23;;;1.60;72.40;;;;;;5056085;28;20123;-72
2022/04/04 01:55:50;;;;;;;2.65;1.30;;;1.50;72.60;;;;;;5066187;28;20115;-70
2022/04/04 01:58:18;;;;;;;1.88;0.70;;;1.60;72.50;;;;;;5060665;28;20090;-70
2022/04/04 02:00:46;;;;;;;3.40;1.38;;;1.50;72.60;;;;;;5060860;28;20041;-71
2022/04/04 02:03:13;;;;;;;3.67;1.60;;;1.50;72.50;;;;;;5059476;28;20050;-70
2022/04/04 02:05:40;;;;;;;2.88;1.30;;;1.50;72.50;;;;;;5061837;28;20115;-72
2022/04/04 02:08:07;;;;;;;2.00;0.90;;;1.50;72.60;;;;;;5055322;28;20563;-70
2022/04/04 02:10:34;;;;;;;5.30;1.30;;;1.50;72.70;;;;;;5059247;28;20351;-70
2022/04/04 02:13:01;;;;;;;3.65;1.38;;;1.50;72.70;;;;;;5057419;28;20044;-72
2022/04/04 02:15:30;;;;;;;3.17;1.70;;;1.40;72.80;;;;;;5056295;28;20053;-72
2022/04/04 02:17:57;;;;;;;3.00;1.05;;;1.40;72.80;;;;;;5059449;28;20041;-71
2022/04/04 02:20:24;;;;;;;2.83;1.00;;;1.40;72.70;;;;;;5065930;28;20090;-71
2022/04/04 02:22:51;;;;;;;1.75;1.00;;;1.40;72.70;;;;;;5057861;28;20124;-70
2022/04/04 02:25:18;;;;;;;5.38;1.48;;;1.40;72.80;;;;;;5063456;28;20182;-71
2022/04/04 02:27:45;;;;;;;2.42;1.23;;;1.40;72.80;;;;;;5062807;28;20056;-73
2022/04/04 02:30:13;;;;;;;2.40;1.27;;;1.40;72.80;;;;;;5061175;28;20051;-71
2022/04/04 02:32:42;;;;;;;2.72;1.08;;;1.30;72.80;;;;;;5057253;28;20110;-72
2022/04/04 02:35:10;;;;;;;1.77;0.82;;;1.30;72.80;;;;;;5057291;28;20076;-71
2022/04/04 02:37:37;;;;;;;2.40;1.10;;;1.30;72.90;;;;;;5058929;28;20064;-72
2022/04/04 02:40:05;;;;;;;5.25;1.75;;;1.30;73.00;;;;;;5057201;28;20044;-71
2022/04/04 02:42:32;;;;;;;4.80;1.33;;;1.20;73.10;;;;;;5057872;28;20051;-70
2022/04/04 02:44:59;;;;;;;2.90;1.42;;;1.30;73.10;;;;;;5062523;28;20041;-72
2022/04/04 02:47:26;;;;;;;2.22;0.90;;;1.20;73.20;;;;;;5062142;28;20127;-71
2022/04/04 02:49:55;;;;;;;5.90;1.60;;;1.20;73.40;;;;;;5066908;28;20040;-71
2022/04/04 02:52:22;;;;;;;2.50;1.13;;;1.20;73.50;;;;;;5060557;28;20058;-71
2022/04/04 02:54:49;;;;;;;2.38;0.90;;;1.20;73.70;;;;;;5065417;28;20048;-71
2022/04/04 02:57:17;;;;;;;2.83;1.40;;;1.20;73.60;;;;;;5061334;28;20123;-72
2022/04/04 02:59:44;;;;;;;4.63;1.45;;;1.20;73.60;;;;;;5062478;28;20029;-70
2022/04/04 03:02:12;;;;;;;3.95;1.55;;;1.20;73.40;;;;;;5056229;28;20048;-72
2022/04/04 03:04:40;;;;;;;3.65;1.17;;;1.20;73.50;;;;;;5062771;28;20044;-72
2022/04/04 03:07:09;;;;;;;4.47;1.42;;;1.20;73.70;;;;;;5061630;28;20063;-70
2022/04/04 03:09:37;;;;;;;2.47;0.88;;;1.20;73.60;;;;;;5064211;28;20224;-71
2022/04/04 03:12:05;;;;;;;2.90;0.80;;;1.20;73.70;;;;;;5059531;28;20044;-70
2022/04/04 03:14:33;;;;;;;3.22;1.48;;;1.10;73.70;;;;;;5069516;28;20533;-71
2022/04/04 03:17:00;;;;;;;2.45;1.05;;;1.10;73.70;;;;;;5069975;28;20044;-71
2022/04/04 03:19:28;;;;;;;2.70;1.08;;;1.10;73.70;;;;;;5068197;28;20040;-72
2022/04/04 03:21:56;;;;;;;3.97;1.50;;;1.10;73.70;;;;;;5067756;28;20036;-72
2022/04/04 03:24:25;;;;;;;1.98;0.93;;;1.10;73.70;;;;;;5069445;28;20058;-71
2022/04/04 03:26:52;;;;;;;1.40;0.80;;;1.00;73.70;;;;;;5070406;28;20674;-71
2022/04/04 03:29:19;;;;;;;3.75;0.75;;;1.00;73.70;;;;;;5067693;28;20508;-71
2022/04/04 03:31:46;;;;;;;2.97;1.40;;;1.00;73.60;;;;;;5069035;28;20044;-70
2022/04/04 03:34:13;;;;;;;2.65;1.40;;;1.00;73.70;;;;;;5069905;28;20052;-71
2022/04/04 03:36:40;;;;;;;2.22;0.98;;;1.00;73.70;;;;;;5064423;28;20059;-71
2022/04/04 03:39:07;;;;;;;2.90;1.48;;;0.90;73.80;;;;;;5059522;28;20056;-72
2022/04/04 03:41:37;;;;;;;1.88;1.13;;;0.90;73.80;;;;;;5060475;28;20057;-71
2022/04/04 03:44:06;;;;;;;2.45;0.90;;;0.90;73.80;;;;;;5059591;28;20044;-70
2022/04/04 03:46:33;;;;;;;2.10;1.02;;;0.90;73.80;;;;;;5058958;28;20044;-72
2022/04/04 03:49:00;;;;;;;3.53;1.30;;;0.90;73.80;;;;;;5059986;28;20547;-72
2022/04/04 03:51:29;;;;;;;1.45;0.88;;;0.90;73.80;;;;;;5066236;28;20072;-71
2022/04/04 03:53:56;;;;;;;2.28;1.20;;;0.90;73.80;;;;;;5064350;28;20036;-71
2022/04/04 03:56:23;;;;;;;2.33;0.82;;;0.90;73.90;;;;;;5067634;28;20040;-74
2022/04/04 03:58:53;;;;;;;2.88;0.98;;;0.90;74.10;;;;;;5067675;28;20044;-72
2022/04/04 04:01:20;;;;;;;4.70;1.50;;;0.90;74.10;;;;;;5057192;28;20123;-73
2022/04/04 04:03:47;;;;;;;3.00;1.27;;;0.90;74.20;;;;;;5060142;28;20049;-71
2022/04/04 04:06:16;;;;;;;2.47;1.33;;;0.90;74.20;;;;;;5059551;28;20044;-72
2022/04/04 04:08:45;;;;;;;3.10;1.00;;;0.90;74.20;;;;;;5066258;28;20482;-71
2022/04/04 04:11:13;;;;;;;2.60;1.15;;;0.90;74.20;;;;;;5051143;28;20393;-72
2022/04/04 04:13:41;;;;;;;5.05;1.63;;;0.90;74.20;;;;;;5066537;28;20135;-71
2022/04/04 04:16:10;;;;;;;3.03;1.33;;;0.90;74.10;;;;;;5062269;28;20049;-72
2022/04/04 04:18:37;;;;;;;2.85;1.65;;;0.90;74.10;;;;;;5063764;28;20049;-71
2022/04/04 04:21:05;;;;;;;4.38;1.65;;;0.90;74.20;;;;;;5069039;28;20066;-72
2022/04/04 04:23:31;;;;;;;2.50;1.00;;;0.80;74.40;;;;;;5057046;28;20512;-72
2022/04/04 04:25:59;;;;;;;4.45;2.67;;;0.80;74.40;;;;;;5058771;28;20124;-72
2022/04/04 04:28:26;;;;;;;3.30;1.60;;;0.90;74.40;;;;;;5057098;28;20048;-71
2022/04/04 04:30:53;;;;;;;4.18;1.90;;;0.90;74.50;;;;;;5063176;28;20053;-71
2022/04/04 04:33:22;;;;;;;3.28;1.33;;;0.80;74.70;;;;;;5060758;28;20040;-72
2022/04/04 04:35:49;;;;;;;3.15;1.55;;;0.90;74.80;;;;;;5062313;28;20063;-73
2022/04/04 04:38:16;;;;;;;5.18;1.73;;;0.90;74.80;;;;;;5066775;28;20037;-71
2022/04/04 04:40:43;;;;;;;3.50;1.70;;;0.90;74.90;;;;;;5066552;28;20051;-70
2022/04/04 04:43:10;;;;;;;3.25;1.60;;;0.90;75.00;;;;;;5067989;28;20040;-72
2022/04/04 04:45:38;;;;;;;4.40;1.90;;;0.90;74.90;;;;;;5062988;28;20041;-71
2022/04/04 04:48:06;;;;;;;3.60;1.83;;;0.90;75.00;;;;;;5059992;28;20758;-71
2022/04/04 04:50:35;;;;;;;6.50;2.28;;;0.90;74.90;;;;;;5060678;28;20041;-72
2022/04/04 04:53:02;;;;;;;6.10;2.33;;;0.80;75.00;;;;;;5045736;28;20049;-71
2022/04/04 04:55:30;;;;;;;3.78;1.92;;;0.90;75.10;;;;;;5059439;28;20048;-71
2022/04/04 04:57:58;;;;;;;5.20;2.30;;;0.80;75.20;;;;;;5062503;28;20155;-70
2022/04/04 05:00:29;;;;;;;4.82;2.05;;;0.90;75.10;;;;;;5069330;28;20478;-72
2022/04/04 05:05:43;;;;;;;4.43;1.92;;;0.90;75.10;;;;;;5082689;28;20060;-70
2022/04/04 05:08:10;;;;;;;4.03;2.30;;;0.90;75.00;;;;;;5069811;28;20123;-72
2022/04/04 05:10:37;;;;;;;4.70;2.35;;;0.90;75.20;;;;;;5069051;28;20128;-71
2022/04/04 05:13:05;;;;;;;2.90;1.58;;;0.90;75.10;;;;;;5071232;28;20119;-72
2022/04/04 05:15:32;;;;;;;3.97;1.70;;;0.90;75.10;;;;;;5043103;28;20435;-72
2022/04/04 05:17:59;;;;;;;3.53;1.50;;;1.00;74.90;;;;;;5062449;28;20048;-71
2022/04/04 05:20:28;;;;;;;3.60;1.45;;;0.90;74.80;;;;;;5058636;28;20055;-64
2022/04/04 05:22:57;;;;;;;4.30;1.90;;;1.00;74.80;;;;;;5062325;28;20044;-65
2022/04/04 05:25:24;;;;;;;4.05;2.15;;;1.00;74.80;;;;;;5057705;28;20063;-65
2022/04/04 05:27:52;;;;;;;4.93;2.53;;;0.90;75.00;;;;;;5061333;28;20052;-64
2022/04/04 05:30:19;;;;;;;6.75;2.90;;;0.90;75.20;;;;;;5056757;28;20044;-64
2022/04/04 05:32:46;;;;;;;5.15;2.22;;;0.90;75.30;;;;;;5061559;28;20064;-65
2022/04/04 05:35:15;;;;;;;5.68;2.72;;;1.00;75.20;;;;;;5063768;28;20037;-65
2022/04/04 05:37:42;;;;;;;5.65;2.95;;;1.00;75.30;;;;;;5065987;28;20048;-68
2022/04/04 05:40:12;;;;;;;6.78;3.28;;;1.00;75.30;;;;;;5060845;28;20068;-69
2022/04/04 05:42:39;;;;;;;5.68;3.28;;;1.00;75.40;;;;;;5058963;28;20159;-69
2022/04/04 05:45:09;;;;;;;6.05;3.17;;;1.10;75.40;;;;;;5068260;28;20603;-69
2022/04/04 05:47:36;;;;;;;6.47;3.13;;;1.10;75.50;;;;;;5066208;28;20167;-69
2022/04/04 05:50:03;;;;;;;5.28;2.72;;;1.20;75.30;;;;;;5066956;28;20036;-69
2022/04/04 05:52:30;;;;;;;6.55;2.83;;;1.20;75.40;;;;;;5065488;28;20690;-69
2022/04/04 05:54:58;;;;;;;5.20;3.15;;;1.20;75.50;;;;;;5067462;28;20056;-68
2022/04/04 05:57:28;;;;;;;6.18;3.08;;;1.20;75.50;;;;;;5066663;28;20115;-68
2022/04/04 05:59:56;;;;;;;5.95;3.15;;;1.20;75.60;;;;;;5068413;28;20529;-69
2022/04/04 06:02:26;;;;;;;4.93;2.95;;;1.30;75.60;;;;;;5059483;28;20047;-67
2022/04/04 06:04:53;;;;;;;4.00;2.53;;;1.30;75.80;;;;;;5067167;28;20045;-68
2022/04/04 06:07:21;;;;;;;4.78;2.85;;;1.30;75.90;;;;;;5064888;28;20037;-67
2022/04/04 06:09:48;;;;;;;5.50;2.33;;;1.30;75.70;;;;;;5064812;28;20037;-69
2022/04/04 06:12:15;;;;;;;5.28;2.72;;;1.40;75.60;;;;;;5064601;28;20037;-69
2022/04/04 06:14:43;;;;;;;6.10;3.10;;;1.50;75.60;;;;;;5067704;28;20043;-69
2022/04/04 06:17:10;;;;;;;6.95;2.28;;;1.50;75.90;;;;;;5069333;28;20045;-69
2022/04/04 06:19:38;;;;;;;6.00;2.08;;;1.50;75.90;;;;;;5066768;28;20043;-67
2022/04/04 06:22:05;;;;;;;5.07;2.60;;;1.60;75.90;;;;;;5068041;28;20048;-68
2022/04/04 06:24:33;;;;;;;5.05;2.97;;;1.70;75.50;;;;;;5047265;28;20036;-67
2022/04/04 06:27:00;;;;;;;5.57;2.35;;;1.70;75.70;;;;;;5063967;28;20036;-68
2022/04/04 06:29:29;;;;;;;4.45;2.63;;;1.70;75.70;;;;;;5067449;28;20486;-68
2022/04/04 06:31:58;;;;;;;5.90;3.00;;;1.70;75.60;;;;;;5065928;28;20036;-67
2022/04/04 06:34:27;;;;;;;6.22;2.88;;;1.80;75.50;;;;;;5065038;28;20040;-68
2022/04/04 06:36:54;;;;;;;7.47;3.22;;;1.80;75.50;;;;;;5066770;28;20028;-68
2022/04/04 06:39:21;;;;;;;7.68;3.50;;;1.90;75.40;;;;;;5063292;28;20482;-68
2022/04/04 06:41:48;;;;;;;10.20;4.45;;;2.00;75.40;;;;;;5060619;28;20048;-68
2022/04/04 06:44:16;;;;;;;8.82;3.75;;;2.10;75.30;;;;;;5060577;28;20048;-67
2022/04/04 06:46:43;;;;;;;8.38;4.00;;;2.20;75.00;;;;;;5058904;28;20057;-69
2022/04/04 06:49:11;;;;;;;7.43;4.57;;;2.20;74.70;;;;;;5058034;28;20189;-69
2022/04/04 06:51:38;;;;;;;7.97;4.72;;;2.20;74.50;;;;;;5063276;28;20167;-69
2022/04/04 06:54:06;;;;;;;12.95;5.38;;;2.20;74.20;;;;;;5066235;28;20402;-68
2022/04/04 06:56:34;;;;;;;9.48;4.13;;;2.30;73.90;;;;;;5067002;28;20048;-68
2022/04/04 06:59:01;;;;;;;7.68;3.97;;;2.40;73.50;;;;;;5065480;28;20041;-67
2022/04/04 07:01:29;;;;;;;10.18;4.40;;;2.40;73.30;;;;;;5062406;28;20045;-68
2022/04/04 07:03:57;;;;;;;8.98;4.72;;;2.50;73.00;;;;;;5067220;28;20041;-67
2022/04/04 07:06:25;;;;;;;7.63;4.20;;;2.50;72.90;;;;;;5062194;28;20046;-67
2022/04/04 07:08:52;;;;;;;7.13;4.13;;;2.70;72.60;;;;;;5059516;28;20049;-67
2022/04/04 07:11:19;;;;;;;8.70;5.00;;;2.80;72.10;;;;;;5060137;28;20493;-67
2022/04/04 07:13:49;;;;;;;8.63;4.30;;;2.90;71.80;;;;;;5056434;28;20068;-68
2022/04/04 07:16:16;;;;;;;10.32;4.55;;;2.90;71.40;;;;;;5056525;28;20102;-69
2022/04/04 07:18:43;;;;;;;8.48;4.40;;;3.00;71.20;;;;;;5057776;28;20045;-69
2022/04/04 07:21:10;;;;;;;7.88;4.38;;;3.10;70.90;;;;;;5055616;28;20043;-68
2022/04/04 07:23:38;;;;;;;8.50;4.97;;;3.10;70.70;;;;;;5055762;28;20152;-68
2022/04/04 07:26:05;;;;;;;10.43;4.78;;;3.20;70.60;;;;;;5057854;28;20124;-67
2022/04/04 07:28:32;;;;;;;6.68;4.45;;;3.30;70.60;;;;;;5059818;28;20043;-66
2022/04/04 07:31:00;;;;;;;8.48;4.15;;;3.40;70.40;;;;;;5049767;28;20377;-66
2022/04/04 07:33:28;;;;;;;6.75;3.70;;;3.50;70.50;;;;;;5064554;28;20063;-67
2022/04/04 07:35:55;;;;;;;7.57;3.90;;;3.70;70.00;;;;;;5058215;28;20061;-67
2022/04/04 07:38:22;;;;;;;7.72;4.10;;;3.80;69.40;;;;;;5058336;28;20045;-66
2022/04/04 07:40:51;;;;;;;7.43;3.30;;;3.90;69.00;;;;;;5056291;28;20040;-68
2022/04/04 07:43:18;;;;;;;6.55;2.78;;;4.10;67.80;;;;;;5052649;28;20482;-67
2022/04/04 07:45:45;;;;;;;6.68;2.92;;;4.20;67.30;;;;;;5055286;28;20048;-67
2022/04/04 07:48:12;;;;;;;6.85;3.90;;;4.30;66.70;;;;;;5060707;28;20110;-68
2022/04/04 07:50:41;;;;;;;7.80;3.63;;;4.50;65.80;;;;;;5058440;28;20059;-68
2022/04/04 07:53:08;;;;;;;6.38;3.58;;;4.50;65.40;;;;;;5060917;28;20052;-69
2022/04/04 07:55:36;;;;;;;7.60;3.45;;;4.60;64.90;;;;;;5065378;28;20263;-67
2022/04/04 07:58:05;;;;;;;6.93;2.88;;;4.70;64.50;;;;;;5060917;28;20044;-68
2022/04/04 08:00:32;;;;;;;8.13;3.33;;;4.70;64.20;;;;;;5059930;28;20123;-68
2022/04/04 08:02:59;;;;;;;7.68;3.75;;;4.70;63.80;;;;;;5061729;28;20041;-68
2022/04/04 08:05:26;;;;;;;7.05;2.78;;;4.70;63.20;;;;;;5062107;28;20448;-67
2022/04/04 08:07:54;;;;;;;5.45;2.92;;;4.80;63.10;;;;;;5060918;28;20048;-70
2022/04/04 08:10:21;;;;;;;6.82;3.58;;;4.80;62.70;;;;;;5063864;28;20127;-68
2022/04/04 08:12:51;;;;;;;7.25;4.22;;;4.90;62.90;;;;;;5061903;28;20152;-68
2022/04/04 08:15:19;;;;;;;6.15;3.38;;;4.90;62.60;;;;;;5060205;28;20068;-68
2022/04/04 08:17:46;;;;;;;7.50;3.05;;;5.00;62.90;;;;;;5068511;28;20072;-68
2022/04/04 08:20:14;;;;;;;6.65;3.55;;;5.00;62.00;;;;;;5067948;28;20068;-68
2022/04/04 08:22:42;;;;;;;8.40;4.28;;;5.20;61.90;;;;;;5070114;28;20091;-70
2022/04/04 08:25:09;;;;;;;5.53;2.92;;;5.20;61.90;;;;;;5068811;28;20051;-68
2022/04/04 08:27:36;;;;;;;8.23;3.53;;;5.30;61.20;;;;;;5067319;28;20079;-68
2022/04/04 08:30:05;;;;;;;6.97;3.47;;;5.30;61.00;;;;;;5067277;28;20044;-68
2022/04/04 08:32:36;;;;;;;6.75;3.00;;;5.30;61.30;;;;;;5070236;28;20044;-68
2022/04/04 08:35:03;;;;;;;5.28;3.25;;;5.40;61.00;;;;;;5069997;28;20137;-68
2022/04/04 08:37:31;;;;;;;6.13;3.70;;;5.40;61.20;;;;;;5068356;28;20036;-68
2022/04/04 08:39:59;;;;;;;5.88;3.13;;;5.50;60.60;;;;;;5067514;28;20060;-68
2022/04/04 08:42:27;;;;;;;6.88;3.60;;;5.50;60.30;;;;;;5059767;28;20149;-67
2022/04/04 08:44:56;;;;;;;5.63;3.15;;;5.60;60.60;;;;;;5060384;28;20048;-69
2022/04/04 08:47:23;;;;;;;8.05;3.70;;;5.70;60.40;;;;;;5059785;28;20039;-68
2022/04/04 08:49:54;;;;;;;5.05;2.97;;;5.70;60.50;;;;;;5062247;28;20116;-69
2022/04/04 08:52:21;;;;;;;11.25;3.22;;;5.70;60.10;;;;;;5059330;28;20053;-68
2022/04/04 08:54:49;;;;;;;4.97;2.53;;;5.80;59.70;;;;;;5058811;28;20102;-69
2022/04/04 08:57:16;;;;;;;7.57;3.58;;;5.90;59.70;;;;;;5060207;28;20135;-69
2022/04/04 08:59:44;;;;;;;5.97;3.13;;;5.90;59.60;;;;;;5057716;28;20449;-68
2022/04/04 09:02:12;;;;;;;8.73;2.97;;;6.00;59.20;;;;;;5056290;28;20044;-69
2022/04/04 09:04:40;;;;;;;5.13;2.63;;;6.00;59.20;;;;;;5058820;28;20584;-70
2022/04/04 09:07:10;;;;;;;5.85;3.00;;;6.00;59.20;;;;;;5062716;28;20140;-68
2022/04/04 09:09:42;;;;;;;8.43;3.55;;;6.00;58.90;;;;;;5057841;28;20543;-68
2022/04/04 09:12:11;;;;;;;7.00;3.20;;;6.00;58.90;;;;;;5060884;28;20056;-69
2022/04/04 09:14:43;;;;;;;6.32;3.10;;;6.00;58.50;;;;;;5058549;28;20057;-69
2022/04/04 09:17:11;;;;;;;5.90;3.42;;;6.10;58.90;;;;;;5056633;28;20155;-68
2022/04/04 09:19:39;;;;;;;5.35;3.38;;;6.10;58.50;;;;;;5057828;28;20045;-70
2022/04/04 09:22:11;;;;;;;8.48;3.35;;;6.00;58.20;;;;;;5060249;28;20036;-71
2022/04/04 09:24:47;;;;;;;6.32;2.83;;;6.10;58.30;;;;;;5061541;28;20143;-67
2022/04/04 09:27:21;;;;;;;4.95;2.75;;;6.30;58.50;;;;;;5059135;28;20041;-70
2022/04/04 09:29:49;;;;;;;5.40;3.20;;;6.40;58.50;;;;;;5061625;28;20041;-68
2022/04/04 09:32:16;;;;;;;6.07;2.83;;;6.60;58.90;;;;;;5062008;28;20106;-68
2022/04/04 09:35:00;;;;;;;7.03;3.40;;;6.70;58.40;;;;;;5062463;28;20119;-68
2022/04/04 09:37:31;;;;;;;5.55;3.42;;;6.90;57.30;;;;;;5057983;28;20044;-68
2022/04/04 09:40:11;;;;;;;4.68;2.78;;;7.00;57.10;;;;;;5058329;28;20059;-68
2022/04/04 09:42:38;;;;;;;7.30;3.50;;;7.20;56.90;;;;;;5059140;28;20045;-70
2022/04/04 09:45:09;;;;;;;6.78;3.40;;;7.20;55.60;;;;;;5055344;28;20118;-68
2022/04/04 09:47:53;;;;;;;5.10;2.63;;;7.20;55.40;;;;;;5060477;28;20048;-69
2022/04/04 09:50:35;;;;;;;5.30;2.92;;;7.20;55.40;;;;;;5060944;28;20033;-68
2022/04/04 09:53:05;;;;;;;7.07;3.42;;;7.20;55.40;;;;;;5060052;28;20055;-70
2022/04/04 09:55:34;;;;;;;7.10;3.55;;;7.30;55.20;;;;;;5062828;28;20052;-69
2022/04/04 09:58:04;;;;;;;7.00;4.07;;;7.40;54.90;;;;;;5066879;28;20044;-68
2022/04/04 10:00:31;;;;;;;5.22;2.78;;;7.40;54.90;;;;;;5064614;28;20040;-68
2022/04/04 10:03:00;;;;;;;4.18;2.50;;;7.50;55.00;;;;;;5062559;28;20044;-68
2022/04/04 10:05:28;;;;;;;8.25;3.10;;;7.60;54.80;;;;;;5058361;28;20562;-69
2022/04/04 10:07:56;;;;;;;5.95;3.45;;;7.60;54.30;;;;;;5057913;28;20111;-68
2022/04/04 10:10:28;;;;;;;6.40;3.58;;;7.70;54.10;;;;;;5058151;28;20131;-68
2022/04/04 10:12:56;;;;;;;5.38;3.10;;;7.70;54.10;;;;;;5058352;28;20037;-68
2022/04/04 10:15:24;;;;;;;6.50;3.33;;;7.90;54.00;;;;;;5059353;28;20064;-69
2022/04/04 10:17:52;;;;;;;5.40;3.28;;;8.00;53.90;;;;;;5062293;28;20044;-68
2022/04/04 10:20:20;;;;;;;6.18;2.95;;;8.20;53.60;;;;;;5058739;28;20113;-68
2022/04/04 10:22:49;;;;;;;6.38;3.75;;;8.20;53.10;;;;;;5057556;28;20044;-70
2022/04/04 10:25:19;;;;;;;6.13;3.20;;;8.30;52.90;;;;;;5060565;28;20044;-71
2022/04/04 10:27:49;;;;;;;7.18;3.60;;;8.40;52.30;;;;;;5059491;28;20048;-68
2022/04/04 10:30:17;;;;;;;5.88;3.17;;;8.40;52.90;;;;;;5061413;28;20055;-69
2022/04/04 10:32:52;;;;;;;6.53;3.50;;;8.40;52.60;;;;;;5059807;28;20041;-68
2022/04/04 10:35:23;;;;;;;6.68;3.75;;;8.50;52.10;;;;;;5059291;28;20044;-69
2022/04/04 10:37:51;;;;;;;7.40;3.65;;;8.60;51.40;;;;;;5060363;28;20434;-69
2022/04/04 10:40:23;;;;;;;7.90;3.17;;;8.60;51.50;;;;;;5056260;28;20118;-68
2022/04/04 10:43:11;;;;;;;5.00;3.17;;;8.60;51.70;;;;;;5059529;28;20466;-69
2022/04/04 10:45:55;;;;;;;6.38;3.38;;;8.60;51.80;;;;;;5038114;28;20052;-69
2022/04/04 10:48:29;;;;;;;7.15;3.42;;;8.50;51.20;;;;;;5064280;28;20048;-69
2022/04/04 10:51:13;;;;;;;8.48;4.18;;;8.50;51.20;;;;;;5063321;28;20394;-70
2022/04/04 10:53:43;;;;;;;6.25;3.80;;;8.40;50.80;;;;;;5063931;28;20052;-68
2022/04/04 10:56:11;;;;;;;;;;;8.30;50.60;;;;;;5062179;28;20052;-69
2022/04/04 10:58:39;;;;;;;7.35;3.38;;;8.20;50.80;;;;;;5064861;28;20404;-68
2022/04/04 11:01:15;;;;;;;4.00;2.72;;;8.40;50.90;;;;;;5057213;28;20074;-68
2022/04/04 11:03:56;;;;;;;5.43;3.25;;;8.50;51.40;;;;;;5058035;28;20049;-69
2022/04/04 11:09:34;;;;;;;5.35;3.22;;;8.80;50.80;;;;;;5053956;28;20049;-69
2022/04/04 11:12:15;;;;;;;5.13;3.25;;;8.90;50.80;;;;;;5057062;28;20048;-69
2022/04/04 11:14:54;;;;;;;6.10;3.30;;;9.00;50.60;;;;;;5064227;28;20139;-68
2022/04/04 11:17:33;;;;;;;5.38;2.92;;;9.10;50.00;;;;;;5066324;28;20032;-69
2022/04/04 11:20:10;;;;;;;5.70;2.78;;;9.10;49.80;;;;;;5065408;28;20067;-70
2022/04/04 11:22:42;;;;;;;3.50;2.08;;;9.10;49.00;;;;;;5066184;28;20068;-69
2022/04/04 11:25:15;;;;;;;4.68;2.60;;;9.10;49.10;;;;;;5056901;28;20043;-69
2022/04/04 11:27:47;;;;;;;6.88;3.15;;;9.10;48.40;;;;;;5058698;28;21070;-68
2022/04/04 11:30:18;;;;;;;4.75;2.45;;;9.10;48.20;;;;;;5070876;28;20045;-68
2022/04/04 11:32:49;;;;;;;5.55;2.85;;;9.10;48.10;;;;;;5071600;28;20498;-68
2022/04/04 11:35:22;;;;;;;4.15;2.67;;;9.20;47.70;;;;;;5066191;28;20045;-68
2022/04/04 11:37:50;;;;;;;4.57;2.65;;;9.20;47.40;;;;;;5065993;28;20112;-69
2022/04/04 11:40:19;;;;;;;6.18;3.03;;;9.10;47.20;;;;;;5070471;28;20054;-69
2022/04/04 11:42:50;;;;;;;5.78;3.35;;;9.10;46.90;;;;;;5070659;28;20125;-68
2022/04/04 11:45:20;;;;;;;3.60;2.33;;;9.00;47.00;;;;;;5066447;28;20032;-68
2022/04/04 11:47:54;;;;;;;4.20;2.40;;;8.90;46.30;;;;;;5067476;28;20040;-69
2022/04/04 11:50:24;;;;;;;4.53;2.08;;;8.90;46.30;;;;;;5070138;28;20505;-68
2022/04/04 11:52:54;;;;;;;4.47;2.70;;;8.90;46.60;;;;;;5065634;28;20411;-68
2022/04/04 11:55:25;;;;;;;3.92;2.53;;;8.90;46.80;;;;;;5061819;28;20094;-69
2022/04/04 11:57:57;;;;;;;4.00;2.70;;;8.90;46.80;;;;;;5061837;28;20123;-70
2022/04/04 12:00:28;;;;;;;4.55;2.38;;;9.10;47.00;;;;;;5061244;28;20132;-70
2022/04/04 12:02:55;;;;;;;4.47;2.35;;;9.10;46.90;;;;;;5062045;28;20045;-70
2022/04/04 12:05:26;;;;;;;5.30;2.80;;;9.20;46.70;;;;;;5068232;28;20060;-69
2022/04/04 12:07:54;;;;;;;4.97;2.55;;;9.20;46.50;;;;;;5065422;28;20474;-69
2022/04/04 12:10:31;;;;;;;5.97;3.03;;;9.20;46.30;;;;;;5066337;28;20052;-70
2022/04/04 12:13:02;;;;;;;5.82;2.70;;;9.20;46.70;;;;;;5069243;28;20052;-70
2022/04/04 12:15:32;;;;;;;6.45;2.88;;;9.20;46.40;;;;;;5064610;28;20122;-71
2022/04/04 12:18:00;;;;;;;4.43;2.60;;;9.20;46.60;;;;;;5061384;28;20033;-69
2022/04/04 12:20:37;;;;;;;6.88;2.78;;;9.20;46.10;;;;;;5060518;28;20036;-69
2022/04/04 12:25:50;;;;;;;6.63;2.92;;;9.20;46.50;;;;;;5059918;28;20494;-69
2022/04/04 12:28:24;;;;;;;5.47;2.45;;;9.20;46.30;;;;;;5062986;28;20048;-69
2022/04/04 12:30:53;;;;;;;4.70;2.78;;;9.20;46.40;;;;;;5059549;28;20048;-69
2022/04/04 12:33:28;;;;;;;4.20;2.55;;;9.20;46.20;;;;;;5059812;28;20055;-69
2022/04/04 12:35:55;;;;;;;5.85;2.70;;;9.20;46.30;;;;;;5041604;28;20045;-69
2022/04/04 12:38:28;;;;;;;5.00;2.30;;;9.20;45.60;;;;;;5061392;28;20053;-69
2022/04/04 12:41:05;;;;;;;5.18;2.63;;;9.20;45.80;;;;;;5057807;28;20041;-69
2022/04/04 12:43:32;;;;;;;4.78;2.70;;;9.20;45.60;;;;;;5058893;28;20101;-69
2022/04/04 12:46:00;;;;;;;7.25;2.67;;;9.30;45.80;;;;;;5060605;28;20044;-70
2022/04/04 12:48:35;;;;;;;7.43;3.13;;;9.30;45.80;;;;;;5057217;28;20044;-69
2022/04/04 12:51:03;;;;;;;7.55;2.90;;;9.40;46.00;;;;;;5060426;28;20048;-69
2022/04/04 12:53:46;;;;;;;4.70;2.90;;;9.40;45.80;;;;;;5062319;28;20044;-70
2022/04/04 12:56:13;;;;;;;6.13;2.33;;;9.40;45.50;;;;;;5060156;28;20055;-69
2022/04/04 12:58:40;;;;;;;4.22;2.72;;;9.40;45.20;;;;;;5062790;28;20544;-71
2022/04/04 13:01:15;;;;;;;5.82;2.95;;;9.40;45.20;;;;;;5066693;28;20051;-69
2022/04/04 13:03:49;;;;;;;3.85;2.45;;;9.40;45.30;;;;;;5070144;28;20040;-70
2022/04/04 13:06:17;;;;;;;4.57;2.58;;;9.40;45.50;;;;;;5063871;28;20043;-68
2022/04/04 13:08:55;;;;;;;5.32;2.50;;;9.40;45.30;;;;;;5069625;28;20048;-68
2022/04/04 13:11:22;;;;;;;7.35;2.72;;;9.40;45.50;;;;;;5071174;28;20105;-69
2022/04/04 13:14:07;;;;;;;4.78;2.40;;;9.40;45.50;;;;;;5068686;28;20131;-69
2022/04/04 13:16:37;;;;;;;5.88;2.83;;;9.40;45.60;;;;;;5069235;28;20532;-68
2022/04/04 13:19:06;;;;;;;;;;;9.50;45.70;;;;;;5070867;28;20465;-68